createdAt,value
2018-03-17T00:01:10.581Z,2.50
2018-03-17T00:03:38.891Z,2.50
2018-03-17T00:06:07.968Z,2.50
2018-03-17T00:08:36.283Z,2.50
2018-03-17T00:11:05.363Z,2.50
2018-03-17T00:13:34.443Z,2.50
2018-03-17T00:16:02.739Z,2.50
2018-03-17T00:18:31.059Z,2.50
2018-03-17T00:20:59.363Z,2.50
2018-03-17T00:23:27.775Z,2.50
2018-03-17T00:25:56.092Z,2.40
2018-03-17T00:28:24.411Z,2.40
2018-03-17T00:30:52.725Z,2.40
2018-03-17T00:33:21.900Z,2.40
2018-03-17T00:35:50.207Z,2.40
2018-03-17T00:38:19.259Z,2.30
2018-03-17T00:40:47.571Z,2.30
2018-03-17T00:43:15.888Z,2.30
2018-03-17T00:45:44.196Z,2.30
2018-03-17T00:48:12.512Z,2.30
2018-03-17T00:50:40.839Z,2.30
2018-03-17T00:53:09.144Z,2.30
2018-03-17T00:55:37.437Z,2.30
2018-03-17T00:58:05.734Z,2.20
2018-03-17T01:00:34.058Z,2.20
2018-03-17T01:03:02.394Z,2.20
2018-03-17T01:05:30.699Z,2.20
2018-03-17T01:07:59.757Z,2.20
2018-03-17T01:10:28.065Z,2.20
2018-03-17T01:12:57.134Z,2.20
2018-03-17T01:15:25.450Z,2.10
2018-03-17T01:17:54.532Z,2.10
2018-03-17T01:20:22.823Z,2.10
2018-03-17T01:22:51.886Z,2.10
2018-03-17T01:25:20.229Z,2.10
2018-03-17T01:27:55.331Z,2.10
2018-03-17T01:30:23.858Z,2.10
2018-03-17T01:32:55.484Z,2.10
2018-03-17T01:35:26.634Z,2.10
2018-03-17T01:37:56.520Z,2.00
2018-03-17T01:40:25.728Z,2.00
2018-03-17T01:42:54.155Z,2.00
2018-03-17T01:45:22.469Z,2.00
2018-03-17T01:47:50.784Z,2.00
2018-03-17T01:50:19.903Z,2.00
2018-03-17T01:52:48.193Z,2.00
2018-03-17T01:55:16.493Z,1.90
2018-03-17T01:57:44.810Z,1.90
2018-03-17T02:00:13.138Z,1.90
2018-03-17T02:02:41.438Z,1.90
2018-03-17T02:05:09.749Z,1.90
2018-03-17T02:07:38.044Z,1.90
2018-03-17T02:10:07.188Z,1.80
2018-03-17T02:12:35.490Z,1.80
2018-03-17T02:15:03.795Z,1.80
2018-03-17T02:17:32.862Z,1.70
2018-03-17T02:20:01.335Z,1.70
2018-03-17T02:22:29.649Z,1.70
2018-03-17T02:24:57.951Z,1.70
2018-03-17T02:27:27.220Z,1.70
2018-03-17T02:29:55.509Z,1.60
2018-03-17T02:32:25.322Z,1.60
2018-03-17T02:34:54.385Z,1.60
2018-03-17T02:37:23.087Z,1.60
2018-03-17T02:39:51.610Z,1.60
2018-03-17T02:42:20.798Z,1.60
2018-03-17T02:44:49.125Z,1.50
2018-03-17T02:47:17.423Z,1.50
2018-03-17T02:49:46.458Z,1.50
2018-03-17T02:52:15.124Z,1.50
2018-03-17T02:54:44.663Z,1.50
2018-03-17T02:57:13.935Z,1.50
2018-03-17T02:59:45.939Z,1.50
2018-03-17T03:02:15.973Z,1.40
2018-03-17T03:04:45.293Z,1.40
2018-03-17T03:07:13.633Z,1.40
2018-03-17T03:09:42.886Z,1.30
2018-03-17T03:12:11.190Z,1.30
2018-03-17T03:14:39.531Z,1.30
2018-03-17T03:17:09.307Z,1.30
2018-03-17T03:19:39.138Z,1.30
2018-03-17T03:22:09.457Z,1.30
2018-03-17T03:24:37.898Z,1.30
2018-03-17T03:27:06.288Z,1.30
2018-03-17T03:29:34.656Z,1.30
2018-03-17T03:32:03.070Z,1.30
2018-03-17T03:34:33.151Z,1.20
2018-03-17T03:37:01.459Z,1.20
2018-03-17T03:39:30.070Z,1.20
2018-03-17T03:41:59.291Z,1.20
2018-03-17T03:44:27.795Z,1.10
2018-03-17T03:46:56.117Z,1.10
2018-03-17T03:49:25.191Z,1.10
2018-03-17T03:51:53.506Z,1.10
2018-03-17T03:54:22.587Z,1.10
2018-03-17T03:56:50.894Z,1.10
2018-03-17T03:59:19.962Z,1.10
2018-03-17T04:01:48.281Z,1.10
2018-03-17T04:04:17.363Z,1.10
2018-03-17T04:06:45.653Z,1.10
2018-03-17T04:09:14.742Z,1.10
2018-03-17T04:11:43.047Z,1.10
2018-03-17T04:14:11.404Z,1.10
2018-03-17T04:16:40.465Z,1.00
2018-03-17T04:19:08.822Z,1.00
2018-03-17T04:21:37.130Z,1.00
2018-03-17T04:24:05.461Z,1.00
2018-03-17T04:26:33.781Z,1.00
2018-03-17T04:29:02.243Z,1.00
2018-03-17T04:31:30.539Z,1.00
2018-03-17T04:33:58.829Z,1.00
2018-03-17T04:36:27.211Z,1.00
2018-03-17T04:38:55.544Z,0.90
2018-03-17T04:41:24.633Z,0.90
2018-03-17T04:43:53.696Z,0.90
2018-03-17T04:46:22.072Z,0.90
2018-03-17T04:48:50.528Z,0.90
2018-03-17T04:51:18.892Z,0.90
2018-03-17T04:53:47.327Z,0.90
2018-03-17T04:56:15.638Z,0.90
2018-03-17T04:58:45.432Z,0.90
2018-03-17T05:01:13.958Z,0.80
2018-03-17T05:03:42.272Z,0.80
2018-03-17T05:06:10.718Z,0.80
2018-03-17T05:08:39.102Z,0.80
2018-03-17T05:11:07.419Z,0.80
2018-03-17T05:13:35.718Z,0.80
2018-03-17T05:16:04.184Z,0.80
2018-03-17T05:18:32.504Z,0.80
2018-03-17T05:21:01.568Z,0.70
2018-03-17T05:23:29.893Z,0.70
2018-03-17T05:25:59.048Z,0.70
2018-03-17T05:28:27.374Z,0.70
2018-03-17T05:30:55.670Z,0.70
2018-03-17T05:33:23.969Z,0.70
2018-03-17T05:35:52.276Z,0.70
2018-03-17T05:38:20.582Z,0.70
2018-03-17T05:40:49.661Z,0.60
2018-03-17T05:43:18.044Z,0.60
2018-03-17T05:45:47.193Z,0.60
2018-03-17T05:48:15.688Z,0.60
2018-03-17T05:50:43.988Z,0.60
2018-03-17T05:53:12.287Z,0.60
2018-03-17T05:55:41.281Z,0.60
2018-03-17T05:58:09.580Z,0.50
2018-03-17T06:00:38.659Z,0.50
2018-03-17T06:03:06.960Z,0.50
2018-03-17T06:05:36.043Z,0.50
2018-03-17T06:08:04.361Z,0.50
2018-03-17T06:10:32.678Z,0.50
2018-03-17T06:13:00.990Z,0.50
2018-03-17T06:15:30.061Z,0.50
2018-03-17T06:17:58.347Z,0.50
2018-03-17T06:20:26.676Z,0.50
2018-03-17T06:22:54.972Z,0.50
2018-03-17T06:25:26.590Z,0.50
2018-03-17T06:27:55.784Z,0.50
2018-03-17T06:30:24.885Z,0.50
2018-03-17T06:32:53.951Z,0.60
2018-03-17T06:35:22.282Z,0.50
2018-03-17T06:37:50.644Z,0.60
2018-03-17T06:40:20.521Z,0.60
2018-03-17T06:42:48.828Z,0.50
2018-03-17T06:45:17.942Z,0.60
2018-03-17T06:47:47.023Z,0.60
2018-03-17T06:50:16.170Z,0.60
2018-03-17T06:52:44.486Z,0.60
2018-03-17T06:55:12.798Z,0.70
2018-03-17T06:57:41.898Z,0.70
2018-03-17T07:00:10.968Z,0.80
2018-03-17T07:02:40.785Z,0.80
2018-03-17T07:05:09.094Z,0.80
2018-03-17T07:07:38.302Z,1.00
2018-03-17T07:10:06.607Z,1.00
2018-03-17T07:12:34.923Z,1.10
2018-03-17T07:15:03.251Z,1.20
2018-03-17T07:17:31.565Z,1.30
2018-03-17T07:19:59.887Z,1.40
2018-03-17T07:22:28.974Z,1.60
2018-03-17T07:24:58.061Z,1.70
2018-03-17T07:27:26.364Z,1.70
2018-03-17T07:29:55.446Z,1.90
2018-03-17T07:32:23.774Z,1.90
2018-03-17T07:34:52.070Z,2.00
2018-03-17T07:37:20.396Z,2.10
2018-03-17T07:39:49.520Z,2.40
2018-03-17T07:42:17.830Z,2.30
2018-03-17T07:44:46.288Z,2.50
2018-03-17T07:47:14.585Z,2.60
2018-03-17T07:49:42.892Z,2.70
2018-03-17T07:52:11.193Z,2.70
2018-03-17T07:54:40.283Z,2.90
2018-03-17T07:57:08.584Z,2.90
2018-03-17T07:59:37.715Z,3.00
2018-03-17T08:02:06.034Z,3.00
2018-03-17T08:04:34.345Z,3.10
2018-03-17T08:07:03.450Z,3.20
2018-03-17T08:09:32.544Z,3.20
2018-03-17T08:12:01.640Z,3.20
2018-03-17T08:14:30.724Z,3.20
2018-03-17T08:16:59.800Z,3.20
2018-03-17T08:19:28.126Z,3.20
2018-03-17T08:21:57.889Z,3.20
2018-03-17T08:24:26.204Z,3.20
2018-03-17T08:26:55.280Z,3.30
2018-03-17T08:29:23.586Z,3.30
2018-03-17T08:31:52.674Z,3.40
2018-03-17T08:34:21.755Z,3.50
2018-03-17T08:36:50.173Z,3.50
2018-03-17T08:39:19.288Z,3.70
2018-03-17T08:41:47.614Z,3.70
2018-03-17T08:44:16.008Z,3.80
2018-03-17T08:46:45.133Z,4.00
2018-03-17T08:49:14.205Z,4.10
2018-03-17T08:51:43.268Z,4.40
2018-03-17T08:54:11.653Z,4.40
2018-03-17T08:56:40.132Z,4.60
2018-03-17T08:59:08.451Z,4.80
2018-03-17T09:01:37.654Z,5.30
2018-03-17T09:04:06.010Z,5.20
2018-03-17T09:06:34.321Z,5.40
2018-03-17T09:09:03.419Z,5.60
2018-03-17T09:11:32.555Z,5.70
2018-03-17T09:14:00.874Z,5.70
2018-03-17T09:16:29.192Z,5.90
2018-03-17T09:18:57.495Z,6.00
2018-03-17T09:21:25.797Z,6.10
2018-03-17T09:23:54.129Z,6.20
2018-03-17T09:26:23.195Z,6.20
2018-03-17T09:28:51.744Z,6.10
2018-03-17T09:31:20.340Z,6.10
2018-03-17T09:33:48.909Z,6.10
2018-03-17T09:36:18.035Z,6.10
2018-03-17T09:38:47.074Z,6.30
2018-03-17T09:41:18.010Z,6.40
2018-03-17T09:43:48.730Z,6.60
2018-03-17T09:46:19.421Z,6.70
2018-03-17T09:48:49.681Z,6.70
2018-03-17T09:51:21.455Z,6.80
2018-03-17T09:53:51.611Z,7.00
2018-03-17T09:56:20.110Z,7.00
2018-03-17T09:58:48.448Z,7.00
2018-03-17T10:01:17.534Z,7.00
2018-03-17T10:03:46.078Z,7.00
2018-03-17T10:06:14.424Z,6.90
2018-03-17T10:08:43.783Z,6.70
2018-03-17T10:11:12.155Z,6.70
2018-03-17T10:13:43.488Z,6.60
2018-03-17T10:16:11.915Z,6.50
2018-03-17T10:18:40.556Z,6.50
2018-03-17T10:21:08.850Z,6.40
2018-03-17T10:23:37.223Z,6.50
2018-03-17T10:26:05.515Z,6.60
2018-03-17T10:28:33.799Z,6.80
2018-03-17T10:31:02.191Z,6.80
2018-03-17T10:33:32.392Z,6.90
2018-03-17T10:36:01.799Z,6.90
2018-03-17T10:38:30.815Z,7.00
2018-03-17T10:40:59.339Z,7.00
2018-03-17T10:43:28.996Z,7.30
2018-03-17T10:45:57.320Z,7.30
2018-03-17T10:48:25.620Z,7.50
2018-03-17T10:50:54.562Z,7.70
2018-03-17T10:53:23.780Z,8.40
2018-03-17T10:55:52.077Z,8.40
2018-03-17T10:58:21.297Z,8.60
2018-03-17T11:00:54.490Z,8.60
2018-03-17T11:03:23.538Z,8.60
2018-03-17T11:05:51.877Z,8.60
2018-03-17T11:08:20.144Z,8.50
2018-03-17T11:10:49.336Z,8.50
2018-03-17T11:13:18.419Z,8.60
2018-03-17T11:15:46.732Z,8.50
2018-03-17T11:18:15.040Z,8.70
2018-03-17T11:20:44.292Z,8.90
2018-03-17T11:23:13.974Z,9.40
2018-03-17T11:25:42.288Z,9.40
2018-03-17T11:28:11.358Z,9.80
2018-03-17T11:30:40.085Z,9.70
2018-03-17T11:33:08.391Z,9.90
2018-03-17T11:35:36.710Z,10.00
2018-03-17T11:38:05.172Z,10.00
2018-03-17T11:40:33.474Z,10.10
2018-03-17T11:43:02.553Z,10.20
2018-03-17T11:45:30.864Z,10.20
2018-03-17T11:47:59.960Z,10.50
2018-03-17T11:50:28.268Z,10.40
2018-03-17T11:52:56.572Z,10.50
2018-03-17T11:55:24.948Z,10.50
2018-03-17T11:57:53.278Z,10.70
2018-03-17T12:00:22.348Z,11.00
2018-03-17T12:02:50.721Z,11.00
2018-03-17T12:05:19.044Z,11.10
2018-03-17T12:07:48.138Z,11.00
2018-03-17T12:10:17.219Z,11.00
2018-03-17T12:12:45.535Z,11.00
2018-03-17T12:15:14.608Z,11.20
2018-03-17T12:17:42.923Z,11.10
2018-03-17T12:20:11.314Z,11.40
2018-03-17T12:22:39.722Z,11.60
2018-03-17T12:25:08.039Z,12.00
2018-03-17T12:27:37.133Z,12.70
2018-03-17T12:30:05.458Z,12.70
2018-03-17T12:32:33.830Z,13.00
2018-03-17T12:35:02.210Z,13.30
2018-03-17T12:37:30.649Z,13.50
2018-03-17T12:39:59.037Z,13.50
2018-03-17T12:42:27.526Z,13.20
2018-03-17T12:44:55.854Z,13.20
2018-03-17T12:47:24.231Z,13.40
2018-03-17T12:49:52.554Z,13.80
2018-03-17T12:52:21.644Z,14.30
2018-03-17T12:54:50.063Z,14.60
2018-03-17T12:57:18.415Z,14.60
2018-03-17T12:59:46.766Z,14.70
2018-03-17T13:04:43.826Z,14.30
2018-03-17T13:07:12.249Z,14.00
2018-03-17T13:09:40.740Z,13.90
2018-03-17T13:12:09.066Z,13.70
2018-03-17T13:14:37.390Z,13.80
2018-03-17T13:17:05.705Z,13.80
2018-03-17T13:19:34.786Z,13.90
2018-03-17T13:22:03.347Z,13.90
2018-03-17T13:24:31.693Z,14.30
2018-03-17T13:27:17.904Z,14.50
2018-03-17T13:29:46.262Z,14.50
2018-03-17T13:32:32.188Z,14.90
2018-03-17T13:35:01.563Z,15.20
2018-03-17T13:37:38.287Z,15.50
2018-03-17T13:43:13.985Z,16.20
2018-03-17T13:45:42.329Z,16.00
2018-03-17T13:48:13.040Z,16.00
2018-03-17T13:50:41.366Z,16.00
2018-03-17T13:53:09.685Z,16.00
2018-03-17T13:55:38.719Z,16.40
2018-03-17T13:58:07.829Z,17.30
2018-03-17T14:00:36.916Z,17.70
2018-03-17T14:03:06.252Z,17.50
2018-03-17T14:05:34.606Z,17.50
2018-03-17T14:08:03.799Z,16.70
2018-03-17T14:10:32.231Z,16.60
2018-03-17T14:13:00.633Z,16.30
2018-03-17T14:15:28.947Z,16.00
2018-03-17T14:17:58.081Z,14.90
2018-03-17T14:20:26.406Z,14.90
2018-03-17T14:22:56.806Z,14.10
2018-03-17T14:25:26.717Z,13.20
2018-03-17T14:27:55.043Z,12.60
2018-03-17T14:30:23.385Z,12.00
2018-03-17T14:32:51.757Z,11.50
2018-03-17T14:35:20.067Z,11.10
2018-03-17T14:37:48.401Z,10.80
2018-03-17T14:40:16.727Z,10.50
2018-03-17T14:42:45.065Z,10.20
2018-03-17T14:45:13.660Z,10.10
2018-03-17T14:47:43.189Z,10.10
2018-03-17T14:50:11.519Z,9.80
2018-03-17T14:52:40.624Z,9.40
2018-03-17T14:55:09.712Z,9.30
2018-03-17T14:57:38.791Z,9.20
2018-03-17T15:00:07.133Z,9.10
2018-03-17T15:02:35.452Z,9.00
2018-03-17T15:05:05.307Z,8.70
2018-03-17T15:07:33.651Z,8.70
2018-03-17T15:10:01.971Z,8.60
2018-03-17T15:12:30.320Z,8.50
2018-03-17T15:14:58.644Z,8.40
2018-03-17T15:17:27.304Z,8.20
2018-03-17T15:19:55.813Z,8.10
2018-03-17T15:22:24.141Z,8.00
2018-03-17T15:24:53.970Z,7.70
2018-03-17T15:27:22.281Z,7.60
2018-03-17T15:29:50.611Z,7.60
2018-03-17T15:32:19.001Z,7.50
2018-03-17T15:34:47.409Z,7.50
2018-03-17T15:37:16.527Z,7.10
2018-03-17T15:39:44.855Z,7.10
2018-03-17T15:42:13.208Z,7.00
2018-03-17T15:44:41.525Z,6.90
2018-03-17T15:47:10.607Z,6.60
2018-03-17T15:49:38.953Z,6.60
2018-03-17T15:52:07.316Z,6.50
2018-03-17T15:54:36.415Z,6.40
2018-03-17T15:57:04.740Z,6.30
2018-03-17T15:59:33.108Z,6.30
2018-03-17T16:02:01.487Z,6.20
2018-03-17T16:04:29.818Z,6.00
2018-03-17T16:06:58.905Z,5.70
2018-03-17T16:09:28.013Z,5.60
2018-03-17T16:11:57.286Z,5.50
2018-03-17T16:14:25.623Z,5.50
2018-03-17T16:16:53.961Z,5.40
2018-03-17T16:19:22.406Z,5.50
2018-03-17T16:21:50.770Z,5.30
2018-03-17T16:24:19.978Z,5.30
2018-03-17T16:26:48.340Z,5.20
2018-03-17T16:29:17.521Z,4.90
2018-03-17T16:31:45.836Z,4.80
2018-03-17T16:34:14.279Z,4.80
2018-03-17T16:36:46.643Z,4.60
2018-03-17T16:39:15.020Z,4.50
2018-03-17T16:41:43.311Z,4.40
2018-03-17T16:44:11.751Z,4.20
2018-03-17T16:46:40.084Z,4.10
2018-03-17T16:49:09.279Z,3.80
2018-03-17T16:51:37.625Z,3.80
2018-03-17T16:54:05.947Z,3.70
2018-03-17T16:56:35.056Z,3.50
2018-03-17T16:59:04.157Z,3.40
2018-03-17T17:01:33.250Z,3.30
2018-03-17T17:04:02.340Z,3.30
2018-03-17T17:06:30.694Z,3.20
2018-03-17T17:08:59.127Z,3.20
2018-03-17T17:11:27.461Z,3.10
2018-03-17T17:13:55.778Z,3.00
2018-03-17T17:16:24.126Z,3.00
2018-03-17T17:18:52.466Z,2.90
2018-03-17T17:21:20.822Z,2.90
2018-03-17T17:23:49.925Z,2.70
2018-03-17T17:26:19.024Z,2.70
2018-03-17T17:28:48.185Z,2.60
2018-03-17T17:31:16.527Z,2.60
2018-03-17T17:33:44.862Z,2.50
2018-03-17T17:36:13.195Z,2.50
2018-03-17T17:38:41.543Z,2.40
2018-03-17T17:41:10.623Z,2.20
2018-03-17T17:43:39.721Z,2.20
2018-03-17T17:46:08.899Z,2.10
2018-03-17T17:48:37.809Z,2.10
2018-03-17T17:51:06.134Z,2.10
2018-03-17T17:53:34.478Z,2.00
2018-03-17T17:56:02.785Z,2.00
2018-03-17T17:58:31.116Z,1.90
2018-03-17T18:00:59.463Z,1.90
2018-03-17T18:03:27.799Z,1.80
2018-03-17T18:05:56.909Z,1.80
2018-03-17T18:08:26.003Z,1.70
2018-03-17T18:10:55.135Z,1.70
2018-03-17T18:13:23.472Z,1.70
2018-03-17T18:15:51.810Z,1.70
2018-03-17T18:18:20.130Z,1.70
2018-03-17T18:20:49.237Z,1.70
2018-03-17T18:23:18.336Z,1.60
2018-03-17T18:25:47.439Z,1.60
2018-03-17T18:28:15.797Z,1.60
2018-03-17T18:30:44.148Z,1.60
2018-03-17T18:33:12.520Z,1.60
2018-03-17T18:35:40.865Z,1.60
2018-03-17T18:38:09.973Z,1.60
2018-03-17T18:40:38.317Z,1.60
2018-03-17T18:43:06.675Z,1.60
2018-03-17T18:45:35.019Z,1.60
2018-03-17T18:48:03.381Z,1.60
2018-03-17T18:50:32.547Z,1.60
2018-03-17T18:53:00.904Z,1.60
2018-03-17T18:55:29.248Z,1.60
2018-03-17T18:57:58.368Z,1.60
2018-03-17T19:00:26.828Z,1.50
2018-03-17T19:02:55.932Z,1.60
2018-03-17T19:05:25.037Z,1.50
2018-03-17T19:07:54.153Z,1.60
2018-03-17T19:10:22.513Z,1.50
2018-03-17T19:12:51.633Z,1.50
2018-03-17T19:15:20.134Z,1.50
2018-03-17T19:17:48.479Z,1.50
2018-03-17T19:20:16.861Z,1.50
2018-03-17T19:22:46.045Z,1.50
2018-03-17T19:25:14.401Z,1.50
2018-03-17T19:27:42.757Z,1.50
2018-03-17T19:30:11.117Z,1.50
2018-03-17T19:32:39.543Z,1.50
2018-03-17T19:35:07.867Z,1.50
2018-03-17T19:37:37.036Z,1.50
2018-03-17T19:40:05.579Z,1.50
2018-03-17T19:42:33.951Z,1.50
2018-03-17T19:45:02.313Z,1.60
2018-03-17T19:47:31.449Z,1.60
2018-03-17T19:49:59.808Z,1.60
2018-03-17T19:52:28.153Z,1.60
2018-03-17T19:54:56.501Z,1.60
2018-03-17T19:57:24.851Z,1.60
2018-03-17T19:59:53.218Z,1.60
2018-03-17T20:02:21.600Z,1.60
2018-03-17T20:04:50.724Z,1.60
2018-03-17T20:07:19.081Z,1.60
2018-03-17T20:09:47.454Z,1.60
2018-03-17T20:12:16.606Z,1.60
2018-03-17T20:14:44.968Z,1.50
2018-03-17T20:17:13.320Z,1.50
2018-03-17T20:19:42.507Z,1.50
2018-03-17T20:22:11.633Z,1.50
2018-03-17T20:24:39.975Z,1.50
2018-03-17T20:27:08.313Z,1.50
2018-03-17T20:29:36.673Z,1.50
2018-03-17T20:32:05.067Z,1.50
2018-03-17T20:34:33.453Z,1.50
2018-03-17T20:37:01.883Z,1.50
2018-03-17T20:39:31.723Z,1.50
2018-03-17T20:42:00.858Z,1.40
2018-03-17T20:44:29.204Z,1.40
2018-03-17T20:46:58.341Z,1.50
2018-03-17T20:49:26.724Z,1.40
2018-03-17T20:51:55.081Z,1.40
2018-03-17T20:54:23.730Z,1.50
2018-03-17T20:56:52.099Z,1.40
2018-03-17T20:59:20.461Z,1.40
2018-03-17T21:01:48.827Z,1.40
2018-03-17T21:04:17.198Z,1.40
2018-03-17T21:06:46.302Z,1.40
2018-03-17T21:09:14.673Z,1.40
2018-03-17T21:11:43.074Z,1.40
2018-03-17T21:14:11.439Z,1.40
2018-03-17T21:16:39.803Z,1.30
2018-03-17T21:19:08.913Z,1.30
2018-03-17T21:21:37.333Z,1.30
2018-03-17T21:24:05.710Z,1.30
2018-03-17T21:26:34.054Z,1.30
2018-03-17T21:29:03.180Z,1.30
2018-03-17T21:31:31.588Z,1.30
2018-03-17T21:33:59.927Z,1.30
2018-03-17T21:36:28.288Z,1.30
2018-03-17T21:38:57.399Z,1.30
2018-03-17T21:41:26.503Z,1.30
2018-03-17T21:43:54.838Z,1.30
2018-03-17T21:46:23.230Z,1.30
2018-03-17T21:48:51.573Z,1.30
2018-03-17T21:51:19.917Z,1.30
2018-03-17T21:53:49.041Z,1.30
2018-03-17T21:56:17.431Z,1.30
2018-03-17T21:58:45.782Z,1.20
2018-03-17T22:01:14.693Z,1.30
2018-03-17T22:03:43.027Z,1.30
2018-03-17T22:06:12.124Z,1.30
2018-03-17T22:08:40.603Z,1.30
2018-03-17T22:11:09.738Z,1.20
2018-03-17T22:13:38.881Z,1.30
2018-03-17T22:16:08.062Z,1.20
2018-03-17T22:18:36.388Z,1.20
2018-03-17T22:21:04.716Z,1.20
2018-03-17T22:23:33.054Z,1.20
2018-03-17T22:26:02.140Z,1.20
2018-03-17T22:28:30.492Z,1.20
2018-03-17T22:30:58.802Z,1.20
2018-03-17T22:33:27.126Z,1.20
2018-03-17T22:35:55.458Z,1.20
2018-03-17T22:38:23.804Z,1.20
2018-03-17T22:40:52.132Z,1.20
2018-03-17T22:43:21.229Z,1.20
2018-03-17T22:45:49.551Z,1.20
2018-03-17T22:48:17.874Z,1.20
2018-03-17T22:50:46.189Z,1.10
2018-03-17T22:53:15.285Z,1.10
2018-03-17T22:55:44.419Z,1.10
2018-03-17T22:58:12.744Z,1.10
2018-03-17T23:00:41.095Z,1.10
2018-03-17T23:03:10.174Z,1.10
2018-03-17T23:05:38.484Z,1.10
2018-03-17T23:08:06.804Z,1.10
2018-03-17T23:10:35.882Z,1.10
2018-03-17T23:13:04.190Z,1.10
2018-03-17T23:15:33.344Z,1.00
2018-03-17T23:18:01.672Z,1.10
2018-03-17T23:20:30.767Z,1.00
2018-03-17T23:22:59.854Z,1.00
2018-03-17T23:25:28.924Z,1.00
2018-03-17T23:27:57.286Z,1.00
2018-03-17T23:30:25.610Z,1.00
2018-03-17T23:32:54.680Z,1.00
2018-03-17T23:35:22.996Z,1.00
2018-03-17T23:37:51.413Z,1.00
2018-03-17T23:40:19.714Z,1.00
2018-03-17T23:42:48.022Z,1.00
2018-03-17T23:45:16.368Z,1.00
2018-03-17T23:47:44.708Z,1.00
2018-03-17T23:50:13.782Z,1.00
2018-03-17T23:52:42.879Z,1.00
2018-03-17T23:55:11.196Z,0.90
2018-03-17T23:57:39.579Z,1.00
